Time;durP1;ratioP1;P1;durP2;ratioP2;P2;SDS_P1;SDS_P2;PMS_P1;PMS_P2;Temp;Humidity;BMP_temperature;BMP_pressure;BME280_temperature;BME280_humidity;BME280_pressure;Samples;Min_cycle;Max_cycle;Signal;HPM_P1;HPM_P2
2023/10/26 00:01:13;;;;;;;13.60;11.73;;;14.30;79.30;;;;;;4990360;28;20061;-54
2023/10/26 00:03:41;;;;;;;14.02;12.10;;;14.30;79.30;;;;;;5007735;28;20044;-53
2023/10/26 00:06:08;;;;;;;13.68;11.88;;;14.20;79.30;;;;;;5005222;28;20037;-55
2023/10/26 00:08:34;;;;;;;13.85;12.13;;;14.30;79.30;;;;;;5006694;28;20034;-56
2023/10/26 00:11:02;;;;;;;15.10;13.00;;;14.20;79.20;;;;;;4989477;28;20104;-53
2023/10/26 00:13:29;;;;;;;14.85;12.48;;;14.30;79.20;;;;;;5009353;28;20088;-56
2023/10/26 00:16:00;;;;;;;13.25;11.75;;;14.20;79.10;;;;;;5007171;28;20045;-53
2023/10/26 00:18:31;;;;;;;14.13;11.85;;;14.20;79.10;;;;;;5007171;28;20463;-54
2023/10/26 00:20:59;;;;;;;12.75;11.30;;;14.20;79.20;;;;;;5007593;28;20159;-54
2023/10/26 00:23:29;;;;;;;14.68;12.27;;;14.30;79.20;;;;;;5006612;28;20421;-54
2023/10/26 00:25:57;;;;;;;13.73;11.95;;;14.30;79.10;;;;;;5006786;28;20052;-55
2023/10/26 00:28:28;;;;;;;13.98;11.77;;;14.30;79.10;;;;;;5007314;28;20092;-53
2023/10/26 00:30:55;;;;;;;14.05;12.30;;;14.30;79.20;;;;;;4991547;28;20049;-54
2023/10/26 00:33:24;;;;;;;14.07;12.23;;;14.30;79.10;;;;;;4991491;28;20034;-53
2023/10/26 00:35:54;;;;;;;14.23;12.68;;;14.30;79.10;;;;;;5009240;28;20128;-51
2023/10/26 00:38:20;;;;;;;14.25;12.30;;;14.30;79.10;;;;;;4997204;28;20045;-55
2023/10/26 00:40:47;;;;;;;13.88;12.10;;;14.30;79.10;;;;;;4991066;28;20080;-54
2023/10/26 00:43:24;;;;;;;14.43;11.75;;;14.30;79.00;;;;;;4991756;28;20048;-52
2023/10/26 00:45:52;;;;;;;12.95;11.65;;;14.30;79.00;;;;;;5009081;28;20045;-52
2023/10/26 00:48:20;;;;;;;13.93;12.38;;;14.30;78.70;;;;;;5007894;28;20034;-54
2023/10/26 00:50:50;;;;;;;14.82;12.32;;;14.30;78.80;;;;;;4988672;28;20654;-52
2023/10/26 00:53:21;;;;;;;13.88;12.32;;;14.30;78.70;;;;;;4991845;28;20096;-52
2023/10/26 00:55:52;;;;;;;14.27;12.77;;;14.30;78.70;;;;;;5006904;28;20041;-53
2023/10/26 00:58:20;;;;;;;15.85;12.52;;;14.30;78.70;;;;;;5008205;28;20112;-53
2023/10/26 01:00:48;;;;;;;16.20;12.93;;;14.20;78.60;;;;;;4999237;28;20136;-56
2023/10/26 01:03:14;;;;;;;16.67;12.88;;;14.20;78.50;;;;;;5009128;28;20808;-55
2023/10/26 01:05:41;;;;;;;13.50;11.90;;;14.30;78.50;;;;;;4990627;28;20081;-54
2023/10/26 01:08:09;;;;;;;14.80;12.32;;;14.20;78.40;;;;;;4991119;28;20121;-54
2023/10/26 01:10:36;;;;;;;14.20;11.57;;;14.20;78.50;;;;;;5007160;28;20065;-52
2023/10/26 01:13:04;;;;;;;13.65;12.32;;;14.20;78.50;;;;;;4992227;28;20088;-52
2023/10/26 01:15:31;;;;;;;15.90;12.07;;;14.20;78.50;;;;;;5007840;28;20125;-55
2023/10/26 01:18:00;;;;;;;14.43;12.65;;;14.20;78.50;;;;;;5007985;28;20046;-53
2023/10/26 01:20:27;;;;;;;14.35;12.85;;;14.20;78.40;;;;;;5006778;28;20132;-53
2023/10/26 01:22:54;;;;;;;14.98;13.30;;;14.10;78.40;;;;;;4999497;28;20112;-55
2023/10/26 01:25:21;;;;;;;16.10;13.15;;;14.10;78.40;;;;;;4987938;28;20079;-52
2023/10/26 01:27:47;;;;;;;15.43;13.15;;;14.10;78.40;;;;;;5007457;28;20128;-53
2023/10/26 01:30:16;;;;;;;15.48;11.70;;;14.10;78.40;;;;;;5007816;28;20058;-57
2023/10/26 01:32:43;;;;;;;17.25;13.10;;;14.10;78.40;;;;;;5008717;28;20088;-56
2023/10/26 01:35:12;;;;;;;14.27;12.77;;;14.10;78.50;;;;;;5007163;28;20036;-52
2023/10/26 01:37:43;;;;;;;14.57;12.40;;;14.10;79.20;;;;;;5007443;28;20108;-52
2023/10/26 01:40:12;;;;;;;15.45;13.27;;;14.10;78.60;;;;;;5007900;28;20126;-55
2023/10/26 01:42:39;;;;;;;14.90;13.20;;;14.10;78.50;;;;;;4989799;28;20143;-55
2023/10/26 01:45:07;;;;;;;14.88;12.82;;;14.10;78.40;;;;;;4990628;28;20423;-51
2023/10/26 01:47:33;;;;;;;13.32;11.65;;;14.10;78.30;;;;;;4989978;28;20038;-56
2023/10/26 01:50:00;;;;;;;15.98;11.82;;;14.00;78.20;;;;;;5006756;28;20042;-53
2023/10/26 01:52:27;;;;;;;13.95;12.43;;;14.00;78.20;;;;;;5007338;28;20034;-52
2023/10/26 01:54:53;;;;;;;13.82;12.27;;;14.00;78.30;;;;;;4987418;28;20047;-53
2023/10/26 01:57:21;;;;;;;14.65;12.45;;;14.00;78.40;;;;;;5006677;28;20064;-53
2023/10/26 01:59:48;;;;;;;14.48;12.02;;;14.00;78.40;;;;;;4988157;28;20144;-54
2023/10/26 02:02:14;;;;;;;14.07;12.55;;;14.00;78.30;;;;;;4990608;28;20055;-52
2023/10/26 02:04:44;;;;;;;15.00;12.75;;;14.00;78.30;;;;;;4988944;28;20095;-55
2023/10/26 02:07:11;;;;;;;14.68;11.23;;;14.00;78.40;;;;;;4987155;28;20045;-56
2023/10/26 02:09:38;;;;;;;13.55;12.00;;;14.00;78.40;;;;;;5005504;28;20092;-52
2023/10/26 02:12:04;;;;;;;12.85;11.45;;;14.00;78.30;;;;;;4988320;28;20065;-56
2023/10/26 02:14:34;;;;;;;13.88;11.50;;;14.00;78.30;;;;;;5005473;28;20042;-54
2023/10/26 02:17:07;;;;;;;13.20;11.43;;;14.00;78.30;;;;;;4988932;28;20054;-54
2023/10/26 02:19:34;;;;;;;12.93;11.45;;;14.00;78.20;;;;;;5004125;28;20041;-51
2023/10/26 02:22:00;;;;;;;13.20;10.88;;;14.00;78.20;;;;;;4995030;28;20046;-52
2023/10/26 02:24:27;;;;;;;16.30;11.05;;;14.00;78.20;;;;;;5006556;28;20503;-55
2023/10/26 02:26:54;;;;;;;13.70;11.02;;;14.00;78.20;;;;;;4990184;28;20447;-52
2023/10/26 02:29:21;;;;;;;13.65;11.43;;;14.00;78.20;;;;;;5005900;28;20034;-56
2023/10/26 02:31:48;;;;;;;13.00;11.65;;;14.00;78.20;;;;;;4990526;28;20061;-56
2023/10/26 02:34:15;;;;;;;13.52;11.50;;;14.00;78.20;;;;;;4987326;28;20064;-52
2023/10/26 02:36:42;;;;;;;14.07;11.38;;;14.00;78.20;;;;;;4994791;28;20514;-52
2023/10/26 02:39:09;;;;;;;12.57;11.15;;;14.00;78.00;;;;;;4988085;28;20042;-55
2023/10/26 02:41:37;;;;;;;14.27;11.20;;;14.00;77.80;;;;;;5005729;28;20445;-53
2023/10/26 02:44:04;;;;;;;14.75;11.73;;;14.00;77.70;;;;;;4978356;28;20627;-52
2023/10/26 02:46:30;;;;;;;13.43;10.65;;;13.90;77.60;;;;;;5005218;28;20053;-56
2023/10/26 02:48:57;;;;;;;12.63;10.77;;;13.90;77.50;;;;;;5005712;28;20133;-55
2023/10/26 02:51:27;;;;;;;12.20;10.90;;;13.90;77.60;;;;;;5005356;28;20065;-52
2023/10/26 02:53:54;;;;;;;14.90;11.38;;;13.90;77.60;;;;;;5006416;28;20056;-54
2023/10/26 02:56:20;;;;;;;12.75;11.40;;;13.80;77.60;;;;;;5004416;28;20030;-51
2023/10/26 02:58:48;;;;;;;14.23;10.95;;;13.80;77.70;;;;;;5006116;28;20129;-52
2023/10/26 03:01:15;;;;;;;10.85;9.75;;;13.80;77.70;;;;;;4986860;28;20123;-56
2023/10/26 03:03:41;;;;;;;13.82;11.25;;;13.80;77.80;;;;;;5007182;28;20129;-55
2023/10/26 03:06:09;;;;;;;13.13;11.48;;;13.80;77.90;;;;;;4987650;28;20088;-53
2023/10/26 03:08:36;;;;;;;13.75;11.68;;;13.80;77.90;;;;;;5005710;28;20038;-56
2023/10/26 03:11:04;;;;;;;13.88;11.45;;;13.80;77.90;;;;;;4989041;28;20062;-53
2023/10/26 03:13:34;;;;;;;13.20;11.27;;;13.80;77.90;;;;;;5004983;28;20070;-53
2023/10/26 03:16:01;;;;;;;13.40;10.32;;;13.80;77.80;;;;;;5006837;28;20046;-53
2023/10/26 03:18:28;;;;;;;13.82;11.55;;;13.80;77.60;;;;;;5006290;28;20052;-56
2023/10/26 03:20:55;;;;;;;13.07;11.68;;;13.80;77.50;;;;;;5006531;28;20416;-56
2023/10/26 03:23:21;;;;;;;13.18;10.93;;;13.80;77.60;;;;;;5007018;28;20389;-52
2023/10/26 03:25:48;;;;;;;12.50;11.00;;;13.80;77.60;;;;;;5003970;28;20042;-55
2023/10/26 03:28:18;;;;;;;13.88;11.68;;;13.80;77.70;;;;;;5006495;28;20061;-56
2023/10/26 03:30:45;;;;;;;13.65;11.02;;;13.80;77.70;;;;;;5005565;28;20511;-54
2023/10/26 03:33:11;;;;;;;13.15;11.43;;;13.80;77.60;;;;;;4989915;28;20041;-55
2023/10/26 03:35:39;;;;;;;14.27;11.75;;;13.70;77.70;;;;;;5005044;28;20050;-55
2023/10/26 03:38:08;;;;;;;12.68;10.35;;;13.70;77.50;;;;;;4988594;28;20054;-55
2023/10/26 03:40:35;;;;;;;11.63;10.43;;;13.70;77.20;;;;;;4986375;28;20046;-52
2023/10/26 03:43:02;;;;;;;11.23;9.65;;;13.70;77.00;;;;;;5008010;28;20046;-55
2023/10/26 03:45:31;;;;;;;12.80;11.05;;;13.70;77.00;;;;;;5005322;28;20100;-54
2023/10/26 03:48:00;;;;;;;15.35;10.10;;;13.60;76.80;;;;;;5006212;28;20129;-55
2023/10/26 03:50:27;;;;;;;12.88;10.85;;;13.60;76.60;;;;;;5005165;28;20046;-55
2023/10/26 03:52:54;;;;;;;11.63;9.88;;;13.50;76.60;;;;;;4988683;28;20581;-55
2023/10/26 03:55:21;;;;;;;11.98;10.13;;;13.50;76.60;;;;;;5004559;28;20069;-53
2023/10/26 03:57:48;;;;;;;12.00;8.98;;;13.40;76.50;;;;;;5005444;28;20120;-55
2023/10/26 04:00:15;;;;;;;10.15;9.15;;;13.40;76.40;;;;;;5006297;28;20046;-52
2023/10/26 04:02:45;;;;;;;10.25;8.40;;;13.30;76.40;;;;;;5005092;28;20074;-53
2023/10/26 04:05:12;;;;;;;10.05;8.98;;;13.30;76.40;;;;;;5006041;28;20046;-56
2023/10/26 04:07:39;;;;;;;13.90;9.40;;;13.20;76.40;;;;;;5005829;28;20843;-54
2023/10/26 04:10:07;;;;;;;9.68;8.57;;;13.20;76.40;;;;;;5009018;28;20113;-51
2023/10/26 04:12:34;;;;;;;10.20;8.65;;;13.20;76.40;;;;;;5008543;28;20112;-52
2023/10/26 04:15:02;;;;;;;9.30;8.02;;;13.10;76.30;;;;;;5010576;28;20046;-53
2023/10/26 04:17:29;;;;;;;10.68;8.35;;;13.10;76.30;;;;;;5008796;28;20061;-54
2023/10/26 04:19:57;;;;;;;8.60;7.68;;;13.00;76.20;;;;;;5009223;28;20113;-54
2023/10/26 04:22:24;;;;;;;9.50;8.27;;;13.00;76.10;;;;;;5008499;28;20443;-54
2023/10/26 04:24:50;;;;;;;10.55;8.93;;;12.90;76.10;;;;;;5005917;28;20042;-53
2023/10/26 04:27:17;;;;;;;10.50;9.40;;;12.90;76.30;;;;;;5009234;28;20284;-54
2023/10/26 04:29:46;;;;;;;11.48;9.02;;;12.90;76.50;;;;;;5009372;28;20062;-54
2023/10/26 04:32:13;;;;;;;11.02;9.18;;;12.80;77.20;;;;;;5007006;28;20116;-53
2023/10/26 04:34:43;;;;;;;11.70;10.15;;;12.80;76.60;;;;;;5007399;28;20429;-56
2023/10/26 04:37:11;;;;;;;11.23;9.35;;;12.80;76.60;;;;;;5007317;28;20488;-52
2023/10/26 04:39:43;;;;;;;12.23;9.80;;;12.70;76.60;;;;;;5007849;28;20073;-54
2023/10/26 04:42:12;;;;;;;11.67;8.90;;;12.70;76.60;;;;;;5006960;28;20041;-53
2023/10/26 04:44:40;;;;;;;12.65;9.60;;;12.70;76.50;;;;;;5005638;28;20045;-56
2023/10/26 04:47:07;;;;;;;9.50;7.95;;;12.70;76.50;;;;;;5005786;28;20076;-53
2023/10/26 04:49:34;;;;;;;14.40;8.85;;;12.60;76.50;;;;;;5005668;28;20073;-56
2023/10/26 04:52:01;;;;;;;12.10;9.18;;;12.60;76.50;;;;;;5005206;28;20078;-54
2023/10/26 04:54:27;;;;;;;12.95;8.90;;;12.50;76.20;;;;;;5005611;28;20084;-52
2023/10/26 04:56:55;;;;;;;10.77;8.57;;;12.50;76.20;;;;;;4999949;28;21098;-55
2023/10/26 04:59:24;;;;;;;14.30;9.45;;;12.50;76.20;;;;;;5005280;28;20092;-54
2023/10/26 05:01:51;;;;;;;13.50;9.50;;;12.40;76.20;;;;;;5004417;28;20042;-51
2023/10/26 05:04:18;;;;;;;11.00;9.77;;;12.40;76.20;;;;;;5005283;28;20064;-56
2023/10/26 05:06:45;;;;;;;12.60;9.20;;;12.40;76.20;;;;;;5005907;28;20100;-52
2023/10/26 05:09:11;;;;;;;12.45;9.68;;;12.30;76.20;;;;;;5005187;28;20191;-54
2023/10/26 05:11:38;;;;;;;11.60;9.75;;;12.30;76.30;;;;;;5003966;28;20048;-54
2023/10/26 05:14:06;;;;;;;12.18;9.27;;;12.30;76.20;;;;;;5004933;28;20039;-54
2023/10/26 05:16:33;;;;;;;10.35;7.95;;;12.20;76.00;;;;;;5005421;28;20041;-53
2023/10/26 05:19:00;;;;;;;10.43;8.30;;;12.20;75.80;;;;;;5004203;28;20050;-53
2023/10/26 05:21:29;;;;;;;10.15;7.93;;;12.20;75.50;;;;;;5004589;28;20049;-52
2023/10/26 05:23:55;;;;;;;9.85;7.53;;;12.10;75.40;;;;;;5003345;28;20050;-53
2023/10/26 05:26:22;;;;;;;9.10;6.93;;;12.10;75.30;;;;;;5006350;28;20682;-52
2023/10/26 05:28:49;;;;;;;7.57;5.93;;;12.00;75.00;;;;;;5003335;28;20065;-54
2023/10/26 05:31:16;;;;;;;6.85;5.53;;;12.00;74.90;;;;;;5002894;28;20046;-55
2023/10/26 05:33:42;;;;;;;5.97;5.05;;;11.90;74.70;;;;;;5001581;28;20435;-57
2023/10/26 05:36:09;;;;;;;7.13;5.47;;;11.90;74.50;;;;;;5004301;28;20103;-54
2023/10/26 05:38:36;;;;;;;6.70;5.18;;;11.80;74.30;;;;;;5003375;28;20050;-56
2023/10/26 05:41:03;;;;;;;6.20;5.40;;;11.80;74.20;;;;;;5002140;28;20551;-55
2023/10/26 05:43:29;;;;;;;5.57;4.78;;;11.70;74.10;;;;;;5004090;28;20049;-55
2023/10/26 05:46:02;;;;;;;5.72;5.03;;;11.70;74.00;;;;;;5005517;28;20062;-53
2023/10/26 05:48:31;;;;;;;5.50;5.00;;;11.60;73.70;;;;;;5006356;28;20171;-54
2023/10/26 05:50:59;;;;;;;8.27;5.72;;;11.50;73.90;;;;;;4987653;28;20571;-53
2023/10/26 05:53:25;;;;;;;6.03;4.78;;;11.50;73.90;;;;;;5005989;28;20038;-51
2023/10/26 05:55:57;;;;;;;6.38;4.22;;;11.40;73.90;;;;;;5004487;28;20808;-52
2023/10/26 05:58:25;;;;;;;6.53;5.53;;;11.40;73.70;;;;;;5006876;28;20046;-53
2023/10/26 06:00:52;;;;;;;6.55;5.05;;;11.30;73.80;;;;;;5004433;28;20462;-56
2023/10/26 06:03:19;;;;;;;5.32;4.40;;;11.30;73.80;;;;;;5006064;28;20584;-53
2023/10/26 06:05:47;;;;;;;5.90;4.43;;;11.30;74.00;;;;;;5002920;28;20600;-55
2023/10/26 06:08:14;;;;;;;5.93;4.82;;;11.20;74.00;;;;;;5004238;28;20523;-54
2023/10/26 06:10:41;;;;;;;6.53;4.38;;;11.10;74.00;;;;;;5006602;28;20108;-52
2023/10/26 06:13:08;;;;;;;4.93;4.28;;;11.10;74.20;;;;;;5006005;28;20045;-55
2023/10/26 06:15:36;;;;;;;7.13;5.30;;;11.10;74.20;;;;;;5005306;28;20069;-53
2023/10/26 06:18:03;;;;;;;7.10;5.85;;;11.10;74.30;;;;;;5004426;28;20046;-54
2023/10/26 06:20:30;;;;;;;6.97;4.47;;;11.10;74.40;;;;;;5004718;28;20038;-55
2023/10/26 06:22:57;;;;;;;6.22;5.10;;;11.10;75.10;;;;;;5006445;28;20053;-54
2023/10/26 06:25:25;;;;;;;8.88;5.63;;;11.10;74.60;;;;;;5005068;28;20570;-55
2023/10/26 06:27:52;;;;;;;8.00;5.60;;;11.10;74.60;;;;;;5006012;28;20034;-55
2023/10/26 06:30:18;;;;;;;8.38;5.95;;;11.10;74.60;;;;;;5004837;28;20041;-54
2023/10/26 06:32:45;;;;;;;7.38;6.43;;;11.10;74.70;;;;;;4988087;28;20049;-53
2023/10/26 06:35:12;;;;;;;8.48;6.75;;;11.10;74.90;;;;;;5006329;28;20092;-53
2023/10/26 06:37:39;;;;;;;16.48;8.63;;;11.10;75.00;;;;;;5008029;28;20053;-56
2023/10/26 06:40:07;;;;;;;55.92;11.75;;;11.10;75.30;;;;;;5001408;28;20595;-54
2023/10/26 06:42:34;;;;;;;37.42;10.85;;;11.20;75.80;;;;;;5006917;28;20041;-53
2023/10/26 06:45:00;;;;;;;33.13;9.75;;;11.20;76.20;;;;;;5005777;28;20049;-54
2023/10/26 06:47:27;;;;;;;23.40;8.38;;;11.20;76.40;;;;;;5006403;28;20033;-54
2023/10/26 06:49:54;;;;;;;19.80;7.00;;;11.20;77.10;;;;;;5005329;28;20088;-56
2023/10/26 06:52:21;;;;;;;19.45;7.35;;;11.30;76.40;;;;;;5006438;28;20086;-56
2023/10/26 06:54:48;;;;;;;14.07;6.82;;;11.30;76.40;;;;;;5005735;28;20654;-56
2023/10/26 06:57:15;;;;;;;14.60;5.93;;;11.30;76.30;;;;;;5007681;28;20038;-53
2023/10/26 06:59:42;;;;;;;11.95;7.00;;;11.30;76.20;;;;;;5007160;28;20088;-54
2023/10/26 07:02:10;;;;;;;12.38;7.35;;;11.40;76.10;;;;;;5008178;28;20045;-54
2023/10/26 07:04:37;;;;;;;9.05;6.18;;;11.30;76.00;;;;;;5004425;28;20480;-55
2023/10/26 07:07:04;;;;;;;10.05;6.63;;;11.30;75.90;;;;;;5003378;28;20053;-52
2023/10/26 07:09:31;;;;;;;8.73;7.15;;;11.30;75.90;;;;;;5004000;28;20062;-54
2023/10/26 07:11:58;;;;;;;7.65;6.47;;;11.30;75.90;;;;;;5004128;28;20463;-52
2023/10/26 07:14:25;;;;;;;7.25;6.53;;;11.30;75.90;;;;;;5003944;28;20500;-55
2023/10/26 07:16:52;;;;;;;7.97;6.70;;;11.40;76.00;;;;;;5003338;28;20096;-54
2023/10/26 07:19:19;;;;;;;8.82;6.70;;;11.40;76.10;;;;;;5003006;28;20057;-54
2023/10/26 07:21:45;;;;;;;6.80;5.85;;;11.40;76.20;;;;;;5006100;28;20671;-55
2023/10/26 07:24:12;;;;;;;7.93;6.15;;;11.40;76.10;;;;;;5003265;28;20038;-54
2023/10/26 07:26:39;;;;;;;8.23;6.28;;;11.40;76.10;;;;;;5004616;28;20770;-55
2023/10/26 07:29:06;;;;;;;6.72;6.03;;;11.40;76.00;;;;;;5003553;28;20141;-55
2023/10/26 07:31:33;;;;;;;7.68;6.45;;;11.40;76.00;;;;;;5005919;28;20088;-52
2023/10/26 07:33:59;;;;;;;6.82;5.72;;;11.40;76.00;;;;;;5004160;28;20503;-56
2023/10/26 07:36:30;;;;;;;6.85;5.70;;;11.50;76.10;;;;;;5003423;28;20144;-55
2023/10/26 07:38:58;;;;;;;5.82;5.25;;;11.50;76.20;;;;;;5004278;28;20064;-55
2023/10/26 07:41:45;;;;;;;7.30;5.85;;;11.50;76.40;;;;;;5003642;28;20046;-54
2023/10/26 07:44:33;;;;;;;8.75;6.60;;;11.60;76.80;;;;;;5008742;28;20117;-55
2023/10/26 07:47:00;;;;;;;12.98;9.35;;;11.60;77.20;;;;;;5007214;28;20053;-56
2023/10/26 07:49:27;;;;;;;14.15;10.15;;;11.70;77.70;;;;;;5008416;28;20455;-51
2023/10/26 07:51:56;;;;;;;18.60;12.90;;;11.80;78.10;;;;;;5008002;28;20041;-54
2023/10/26 07:54:22;;;;;;;24.42;17.77;;;11.90;78.20;;;;;;5008607;28;20097;-52
2023/10/26 07:56:49;;;;;;;25.27;18.45;;;12.00;78.20;;;;;;5006782;28;20101;-55
2023/10/26 07:59:15;;;;;;;25.92;18.95;;;12.00;78.30;;;;;;5007068;28;20046;-53
2023/10/26 08:01:42;;;;;;;30.42;21.17;;;12.10;78.30;;;;;;5008469;28;20034;-54
2023/10/26 08:04:09;;;;;;;27.80;20.20;;;12.10;78.30;;;;;;5007651;28;20125;-56
2023/10/26 08:06:36;;;;;;;30.85;20.08;;;12.20;78.30;;;;;;5007417;28;20530;-53
2023/10/26 08:09:03;;;;;;;29.88;19.92;;;12.30;78.30;;;;;;5006341;28;20065;-55
2023/10/26 08:11:30;;;;;;;32.42;22.10;;;12.30;78.40;;;;;;5008376;28;20100;-55
2023/10/26 08:13:56;;;;;;;28.85;20.35;;;12.40;78.40;;;;;;5006691;28;20088;-53
2023/10/26 08:16:23;;;;;;;33.08;21.45;;;12.40;78.60;;;;;;5007847;28;20048;-55
2023/10/26 08:19:10;;;;;;;28.85;19.83;;;12.40;78.70;;;;;;5006250;28;20041;-59
2023/10/26 08:21:37;;;;;;;27.80;19.65;;;12.50;78.60;;;;;;4990642;28;20042;-59
2023/10/26 08:24:04;;;;;;;29.98;19.73;;;12.50;78.60;;;;;;5005212;28;20049;-59
2023/10/26 08:26:31;;;;;;;29.63;19.90;;;12.60;78.80;;;;;;5006384;28;20077;-60
2023/10/26 08:28:58;;;;;;;26.88;20.17;;;12.60;78.80;;;;;;5006896;28;20030;-60
2023/10/26 08:31:34;;;;;;;29.20;21.23;;;12.60;78.90;;;;;;5009567;28;20037;-59
2023/10/26 08:34:01;;;;;;;30.80;21.27;;;12.70;79.30;;;;;;5008248;28;20052;-59
2023/10/26 08:36:28;;;;;;;28.85;20.05;;;12.70;79.20;;;;;;5009942;28;20095;-59
2023/10/26 08:38:54;;;;;;;29.17;20.42;;;12.80;79.50;;;;;;5008914;28;20065;-59
2023/10/26 08:41:21;;;;;;;24.02;17.92;;;12.80;79.70;;;;;;5008451;28;20061;-59
2023/10/26 08:43:48;;;;;;;25.50;19.63;;;12.90;79.60;;;;;;5007428;28;20117;-60
2023/10/26 08:46:17;;;;;;;25.60;19.15;;;12.90;79.30;;;;;;5009170;28;20045;-58
2023/10/26 08:48:46;;;;;;;25.17;19.02;;;13.00;79.20;;;;;;5007606;28;20038;-60
2023/10/26 08:51:13;;;;;;;24.60;17.85;;;13.10;79.20;;;;;;5006383;28;20077;-59
2023/10/26 08:53:42;;;;;;;27.58;19.38;;;13.20;79.20;;;;;;5008580;28;20066;-60
2023/10/26 08:56:11;;;;;;;24.02;18.73;;;13.30;79.20;;;;;;5007014;28;20500;-58
2023/10/26 08:58:37;;;;;;;24.73;18.25;;;13.40;79.30;;;;;;5008408;28;20455;-59
2023/10/26 09:01:05;;;;;;;24.48;17.13;;;13.50;79.30;;;;;;5008626;28;20038;-58
2023/10/26 09:03:36;;;;;;;23.42;17.52;;;13.60;79.00;;;;;;5007627;28;20034;-60
2023/10/26 09:06:03;;;;;;;21.40;16.25;;;13.70;78.80;;;;;;5008758;28;20046;-59
2023/10/26 09:08:30;;;;;;;21.67;15.07;;;13.80;78.60;;;;;;5008412;28;20544;-59
2023/10/26 09:10:57;;;;;;;21.38;15.63;;;13.90;78.40;;;;;;5008245;28;20096;-59
2023/10/26 09:13:26;;;;;;;22.92;16.92;;;14.00;77.90;;;;;;5009056;28;20136;-59
2023/10/26 09:15:57;;;;;;;19.13;14.50;;;14.10;77.70;;;;;;5009053;28;20080;-59
2023/10/26 09:18:26;;;;;;;21.30;15.63;;;14.20;77.60;;;;;;5007057;28;20124;-60
2023/10/26 09:21:03;;;;;;;21.80;15.68;;;14.30;77.50;;;;;;5009012;28;20495;-59
2023/10/26 09:23:32;;;;;;;17.05;13.45;;;14.30;77.20;;;;;;5007313;28;20042;-59
2023/10/26 09:26:01;;;;;;;19.40;14.70;;;14.40;77.20;;;;;;5006253;28;20030;-59
2023/10/26 09:28:28;;;;;;;18.17;13.95;;;14.50;77.00;;;;;;5007386;28;20042;-60
2023/10/26 09:30:59;;;;;;;18.45;14.70;;;14.60;76.90;;;;;;5008654;28;20053;-58
2023/10/26 09:33:26;;;;;;;17.58;14.10;;;14.70;76.60;;;;;;5008468;28;20049;-59
2023/10/26 09:35:54;;;;;;;16.38;13.02;;;14.80;76.70;;;;;;5007130;28;20061;-58
2023/10/26 09:38:35;;;;;;;15.88;12.13;;;14.80;76.40;;;;;;5005752;28;20065;-59
2023/10/26 09:41:09;;;;;;;11.70;10.00;;;14.90;76.10;;;;;;5008250;28;20455;-59
2023/10/26 09:43:36;;;;;;;11.07;9.35;;;15.00;75.60;;;;;;5005306;28;20045;-60
2023/10/26 09:46:03;;;;;;;11.20;8.75;;;15.10;75.60;;;;;;5009146;28;20042;-59
2023/10/26 09:48:30;;;;;;;11.18;8.38;;;15.20;75.10;;;;;;5007655;28;20034;-59
2023/10/26 09:51:00;;;;;;;11.90;9.30;;;15.20;74.40;;;;;;5008641;28;20049;-59
2023/10/26 09:53:34;;;;;;;12.70;9.20;;;15.30;74.10;;;;;;5006370;28;20042;-59
2023/10/26 09:56:03;;;;;;;11.00;8.07;;;15.30;73.60;;;;;;5006183;28;20049;-59
2023/10/26 09:58:40;;;;;;;12.18;9.23;;;15.40;73.60;;;;;;5003613;28;20122;-60
2023/10/26 10:01:31;;;;;;;11.07;9.27;;;15.40;73.50;;;;;;5005950;28;20042;-59
2023/10/26 10:03:57;;;;;;;9.23;7.47;;;15.50;73.10;;;;;;5005054;28;20439;-60
2023/10/26 10:06:50;;;;;;;8.48;6.53;;;15.50;73.50;;;;;;5003702;28;20045;-59
2023/10/26 10:09:22;;;;;;;9.27;6.65;;;15.60;72.70;;;;;;5001822;28;20116;-55
2023/10/26 10:12:13;;;;;;;8.15;6.90;;;15.70;73.00;;;;;;5002983;28;20527;-54
2023/10/26 10:14:54;;;;;;;9.82;7.15;;;15.70;72.20;;;;;;5005278;28;20045;-55
2023/10/26 10:17:51;;;;;;;10.13;7.28;;;15.80;72.00;;;;;;5004405;28;20504;-55
2023/10/26 10:20:18;;;;;;;8.32;6.85;;;15.90;71.90;;;;;;4997213;28;20415;-54
2023/10/26 10:22:48;;;;;;;8.85;6.97;;;15.90;72.20;;;;;;5004488;28;20542;-55
2023/10/26 10:25:17;;;;;;;10.07;7.95;;;16.00;71.90;;;;;;5003108;28;20057;-56
2023/10/26 10:27:47;;;;;;;10.20;7.78;;;16.00;72.10;;;;;;5004250;28;20050;-56
2023/10/26 10:30:18;;;;;;;11.70;8.98;;;16.10;71.70;;;;;;5002818;28;20428;-54
2023/10/26 10:32:46;;;;;;;11.23;9.00;;;16.10;71.80;;;;;;5004338;28;20117;-54
2023/10/26 10:35:45;;;;;;;13.82;9.40;;;16.20;71.50;;;;;;5001593;28;20137;-55
2023/10/26 10:38:15;;;;;;;10.60;8.73;;;16.30;70.70;;;;;;5003367;28;20037;-55
2023/10/26 10:40:55;;;;;;;9.75;8.65;;;16.40;71.40;;;;;;5002541;28;20096;-53
2023/10/26 10:43:45;;;;;;;10.23;9.00;;;16.40;71.10;;;;;;5003305;28;20136;-55
2023/10/26 10:46:15;;;;;;;13.48;11.93;;;16.50;70.20;;;;;;5004723;28;20049;-55
2023/10/26 10:49:11;;;;;;;10.68;8.90;;;16.50;70.60;;;;;;5002842;28;20045;-56
2023/10/26 10:51:39;;;;;;;10.43;8.75;;;16.60;70.00;;;;;;4984979;28;20145;-55
2023/10/26 10:54:12;;;;;;;12.68;9.93;;;16.70;70.50;;;;;;5003889;28;20049;-55
2023/10/26 10:57:03;;;;;;;11.30;9.27;;;16.70;70.50;;;;;;5005765;28;20571;-56
2023/10/26 10:59:30;;;;;;;11.47;8.93;;;16.80;70.50;;;;;;5003202;28;20049;-56
2023/10/26 11:02:11;;;;;;;10.38;9.15;;;16.80;70.10;;;;;;5006094;28;20124;-53
2023/10/26 11:04:55;;;;;;;11.35;9.60;;;16.90;68.40;;;;;;5003641;28;20795;-53
2023/10/26 11:07:35;;;;;;;8.73;7.82;;;16.90;68.00;;;;;;5004771;28;20042;-54
2023/10/26 11:10:03;;;;;;;9.55;7.88;;;16.90;69.00;;;;;;5005816;28;20115;-52
2023/10/26 11:12:30;;;;;;;10.18;8.68;;;16.90;69.00;;;;;;5003524;28;20038;-54
2023/10/26 11:14:56;;;;;;;10.10;9.00;;;17.00;69.60;;;;;;5005310;28;20041;-52
2023/10/26 11:17:24;;;;;;;9.40;8.27;;;17.00;68.60;;;;;;5005078;28;20050;-53
2023/10/26 11:19:53;;;;;;;10.23;7.38;;;17.00;68.30;;;;;;5009672;28;20038;-51
2023/10/26 11:22:21;;;;;;;10.45;8.00;;;17.00;68.20;;;;;;5009096;28;20038;-53
2023/10/26 11:24:48;;;;;;;9.80;7.43;;;17.00;67.60;;;;;;5009375;28;20069;-53
2023/10/26 11:27:17;;;;;;;9.85;7.65;;;17.00;67.50;;;;;;5009932;28;20049;-53
2023/10/26 11:30:04;;;;;;;10.43;7.65;;;17.10;67.40;;;;;;5007560;28;20049;-54
2023/10/26 11:32:31;;;;;;;7.97;6.68;;;17.10;66.60;;;;;;5005223;28;20411;-52
2023/10/26 11:35:13;;;;;;;7.88;6.45;;;17.10;67.20;;;;;;5008616;28;20037;-54
2023/10/26 11:37:48;;;;;;;8.00;6.95;;;17.10;66.90;;;;;;5009212;28;20038;-55
2023/10/26 11:40:16;;;;;;;8.82;6.72;;;17.10;66.90;;;;;;5008803;28;20467;-53
2023/10/26 11:42:53;;;;;;;7.05;6.22;;;17.10;67.30;;;;;;5010811;28;20112;-54
2023/10/26 11:45:21;;;;;;;8.68;6.43;;;17.10;67.20;;;;;;5008047;28;20046;-53
2023/10/26 11:47:58;;;;;;;6.10;5.35;;;17.10;67.20;;;;;;5009170;28;20049;-52
2023/10/26 11:50:26;;;;;;;6.00;5.43;;;17.20;66.60;;;;;;5008900;28;20038;-53
2023/10/26 11:53:02;;;;;;;7.60;5.60;;;17.20;66.90;;;;;;5009915;28;20042;-53
2023/10/26 11:55:31;;;;;;;7.90;5.13;;;17.20;66.50;;;;;;5009156;28;20124;-54
2023/10/26 11:58:00;;;;;;;9.07;6.93;;;17.30;66.70;;;;;;5010384;28;20125;-53
2023/10/26 12:00:28;;;;;;;10.02;6.80;;;17.30;66.60;;;;;;5010636;28;20287;-54
2023/10/26 12:02:57;;;;;;;9.05;6.90;;;17.30;66.40;;;;;;5010343;28;20129;-53
2023/10/26 12:05:24;;;;;;;9.25;8.07;;;17.30;66.60;;;;;;5008781;28;20061;-53
2023/10/26 12:07:51;;;;;;;7.45;6.40;;;17.30;66.50;;;;;;5008380;28;20440;-54
2023/10/26 12:10:20;;;;;;;7.95;7.10;;;17.30;66.40;;;;;;5009133;28;20092;-53
2023/10/26 12:12:50;;;;;;;7.53;6.45;;;17.30;66.10;;;;;;5009619;28;20085;-53
2023/10/26 12:15:21;;;;;;;7.57;6.78;;;17.40;66.30;;;;;;5008691;28;20041;-54
2023/10/26 12:17:50;;;;;;;6.95;6.28;;;17.30;66.00;;;;;;5009182;28;20507;-54
2023/10/26 12:20:17;;;;;;;7.90;5.68;;;17.30;66.00;;;;;;5007353;28;20052;-53
2023/10/26 12:22:45;;;;;;;7.65;5.75;;;17.40;66.20;;;;;;5008144;28;20076;-52
2023/10/26 12:25:12;;;;;;;7.78;5.30;;;17.40;66.40;;;;;;5008856;28;20037;-51
2023/10/26 12:27:39;;;;;;;6.93;5.93;;;17.40;66.50;;;;;;5009137;28;20085;-54
2023/10/26 12:30:26;;;;;;;6.65;5.60;;;17.50;66.70;;;;;;5008062;28;20120;-54
2023/10/26 12:32:53;;;;;;;9.10;6.70;;;17.50;66.60;;;;;;5009901;28;20038;-53
2023/10/26 12:35:20;;;;;;;7.20;6.32;;;17.60;66.90;;;;;;5009221;28;20033;-53
2023/10/26 12:37:47;;;;;;;7.70;6.88;;;17.70;66.50;;;;;;5009426;28;20041;-54
2023/10/26 12:40:13;;;;;;;8.85;6.88;;;17.80;66.30;;;;;;5009754;28;20072;-52
2023/10/26 12:42:41;;;;;;;10.65;6.47;;;17.90;66.50;;;;;;5009362;28;20045;-53
2023/10/26 12:45:08;;;;;;;12.10;8.57;;;17.90;66.40;;;;;;5009254;28;20121;-53